createdAt,value
2022-11-21T00:00:41.382Z,5.70
2022-11-21T00:02:15.662Z,5.70
2022-11-21T00:03:49.214Z,5.70
2022-11-21T00:05:22.392Z,5.70
2022-11-21T00:06:55.543Z,5.70
2022-11-21T00:08:28.703Z,5.70
2022-11-21T00:10:04.564Z,5.70
2022-11-21T00:11:37.753Z,5.70
2022-11-21T00:13:15.168Z,5.70
2022-11-21T00:14:49.593Z,5.70
2022-11-21T00:16:22.805Z,5.70
2022-11-21T00:17:55.957Z,5.70
2022-11-21T00:19:29.321Z,5.70
2022-11-21T00:21:06.758Z,5.70
2022-11-21T00:22:39.894Z,5.70
2022-11-21T00:24:13.139Z,5.70
2022-11-21T00:25:48.409Z,5.70
2022-11-21T00:27:21.711Z,5.70
2022-11-21T00:28:54.040Z,5.70
2022-11-21T00:30:29.145Z,5.70
2022-11-21T00:32:02.564Z,5.70
2022-11-21T00:33:36.847Z,5.70
2022-11-21T00:35:10.420Z,5.70
2022-11-21T00:36:43.935Z,5.70
2022-11-21T00:38:16.263Z,5.70
2022-11-21T00:39:49.481Z,5.70
2022-11-21T00:41:22.573Z,5.70
2022-11-21T00:42:54.826Z,5.70
2022-11-21T00:44:28.109Z,5.70
2022-11-21T00:46:04.431Z,5.70
2022-11-21T00:47:38.177Z,5.70
2022-11-21T00:49:11.368Z,5.70
2022-11-21T00:50:44.739Z,5.70
2022-11-21T00:52:17.001Z,5.70
2022-11-21T00:53:50.161Z,5.70
2022-11-21T00:55:23.361Z,5.70
2022-11-21T00:56:56.577Z,5.70
2022-11-21T00:58:31.639Z,5.70
2022-11-21T01:00:09.902Z,5.70
2022-11-21T01:01:44.749Z,5.60
2022-11-21T01:03:25.986Z,5.70
2022-11-21T01:05:01.932Z,5.60
2022-11-21T01:06:34.178Z,5.60
2022-11-21T01:08:07.565Z,5.60
2022-11-21T01:09:40.905Z,5.60
2022-11-21T01:11:17.237Z,5.60
2022-11-21T01:12:50.576Z,5.60
2022-11-21T01:14:23.996Z,5.60
2022-11-21T01:15:57.292Z,5.60
2022-11-21T01:17:33.578Z,5.60
2022-11-21T01:19:06.894Z,5.60
2022-11-21T01:20:41.050Z,5.60
2022-11-21T01:22:16.830Z,5.60
2022-11-21T01:23:49.551Z,5.60
2022-11-21T01:25:27.309Z,5.50
2022-11-21T01:27:00.507Z,5.50
2022-11-21T01:28:33.419Z,5.50
2022-11-21T01:30:08.433Z,5.50
2022-11-21T01:31:41.543Z,5.50
2022-11-21T01:33:18.558Z,5.50
2022-11-21T01:34:51.700Z,5.50
2022-11-21T01:36:27.760Z,5.50
2022-11-21T01:38:01.229Z,5.50
2022-11-21T01:39:34.451Z,5.50
2022-11-21T01:41:07.505Z,5.50
2022-11-21T01:43:03.737Z,5.40
2022-11-21T01:44:50.736Z,5.40
2022-11-21T01:46:24.994Z,5.40
2022-11-21T01:48:01.033Z,5.40
2022-11-21T01:49:35.669Z,5.40
2022-11-21T01:51:21.551Z,5.40
2022-11-21T01:52:56.635Z,5.40
2022-11-21T01:54:38.700Z,5.40
2022-11-21T01:56:11.628Z,5.30
2022-11-21T01:57:49.913Z,5.30
2022-11-21T01:59:32.582Z,5.30
2022-11-21T02:01:05.557Z,5.30
2022-11-21T02:02:44.281Z,5.30
2022-11-21T02:04:17.989Z,5.30
2022-11-21T02:05:56.374Z,5.20
2022-11-21T02:07:36.895Z,5.20
2022-11-21T02:09:10.419Z,5.20
2022-11-21T02:10:54.197Z,5.20
2022-11-21T02:12:33.575Z,5.20
2022-11-21T02:14:07.425Z,5.20
2022-11-21T02:15:40.157Z,5.20
2022-11-21T02:17:13.670Z,5.20
2022-11-21T02:18:46.915Z,5.20
2022-11-21T02:20:23.529Z,5.20
2022-11-21T02:22:08.928Z,5.20
2022-11-21T02:23:52.285Z,5.20
2022-11-21T02:25:31.055Z,5.10
2022-11-21T02:27:04.887Z,5.10
2022-11-21T02:28:37.172Z,5.10
2022-11-21T02:30:15.154Z,5.10
2022-11-21T02:31:48.312Z,5.10
2022-11-21T02:33:21.746Z,5.10
2022-11-21T02:34:54.845Z,5.10
2022-11-21T02:36:44.208Z,5.10
2022-11-21T02:38:23.558Z,5.20
2022-11-21T02:40:02.587Z,5.10
2022-11-21T02:41:43.316Z,5.10
2022-11-21T02:43:24.085Z,5.10
2022-11-21T02:45:08.882Z,5.10
2022-11-21T02:46:50.595Z,5.10
2022-11-21T02:48:24.283Z,5.10
2022-11-21T02:50:04.408Z,5.10
2022-11-21T02:51:37.874Z,5.10
2022-11-21T02:53:14.198Z,5.10
2022-11-21T02:54:46.502Z,5.10
2022-11-21T02:56:19.776Z,5.10
2022-11-21T02:57:59.045Z,5.10
2022-11-21T02:59:34.927Z,5.00
2022-11-21T03:01:07.296Z,5.00
2022-11-21T03:02:40.862Z,5.00
2022-11-21T03:04:13.971Z,5.00
2022-11-21T03:05:47.589Z,5.00
2022-11-21T03:07:20.746Z,5.00
2022-11-21T03:08:54.007Z,5.00
2022-11-21T03:10:27.369Z,5.00
2022-11-21T03:12:00.763Z,5.00
2022-11-21T03:13:34.359Z,5.00
2022-11-21T03:15:11.998Z,5.00
2022-11-21T03:16:45.125Z,5.00
2022-11-21T03:18:18.320Z,5.00
2022-11-21T03:19:51.534Z,5.00
2022-11-21T03:21:24.678Z,5.00
2022-11-21T03:22:57.909Z,5.00
2022-11-21T03:24:31.146Z,5.00
2022-11-21T03:26:03.384Z,5.00
2022-11-21T03:27:36.563Z,5.00
2022-11-21T03:29:11.119Z,5.00
2022-11-21T03:30:43.563Z,5.00
2022-11-21T03:32:16.935Z,4.90
2022-11-21T03:33:49.149Z,5.00
2022-11-21T03:35:22.243Z,4.90
2022-11-21T03:36:55.646Z,4.90
2022-11-21T03:38:28.815Z,4.90
2022-11-21T03:40:00.976Z,4.90
2022-11-21T03:41:35.062Z,5.00
2022-11-21T03:43:08.330Z,4.90
2022-11-21T03:44:43.054Z,4.90
2022-11-21T03:46:16.168Z,4.90
2022-11-21T03:47:49.340Z,4.90
2022-11-21T03:49:22.504Z,4.90
2022-11-21T03:50:55.966Z,4.90
2022-11-21T03:52:29.495Z,4.90
2022-11-21T03:54:02.948Z,4.90
2022-11-21T03:55:36.165Z,4.90
2022-11-21T03:57:08.404Z,4.90
2022-11-21T03:58:41.979Z,4.90
2022-11-21T04:00:18.208Z,4.90
2022-11-21T04:01:51.463Z,4.90
2022-11-21T04:03:24.825Z,4.80
2022-11-21T04:04:58.068Z,4.90
2022-11-21T04:06:31.350Z,4.90
2022-11-21T04:08:04.971Z,4.80
2022-11-21T04:09:38.110Z,4.80
2022-11-21T04:11:10.968Z,4.80
2022-11-21T04:12:44.190Z,4.80
2022-11-21T04:14:16.864Z,4.80
2022-11-21T04:15:51.366Z,4.80
2022-11-21T04:17:24.595Z,4.80
2022-11-21T04:18:57.751Z,4.80
2022-11-21T04:20:30.887Z,4.80
2022-11-21T04:22:04.036Z,4.80
2022-11-21T04:23:37.596Z,4.80
2022-11-21T04:25:11.308Z,4.80
2022-11-21T04:26:44.571Z,4.80
2022-11-21T04:28:17.006Z,4.80
2022-11-21T04:29:50.347Z,4.80
2022-11-21T04:31:24.932Z,4.80
2022-11-21T04:32:57.406Z,4.80
2022-11-21T04:34:30.864Z,4.80
2022-11-21T04:36:04.221Z,4.80
2022-11-21T04:37:39.539Z,4.80
2022-11-21T04:39:12.748Z,4.80
2022-11-21T04:40:45.422Z,4.80
2022-11-21T04:42:18.716Z,4.80
2022-11-21T04:43:52.070Z,4.80
2022-11-21T04:45:25.272Z,4.80
2022-11-21T04:47:05.078Z,4.80
2022-11-21T04:48:38.916Z,4.80
2022-11-21T04:50:15.305Z,4.80
2022-11-21T04:51:48.572Z,4.80
2022-11-21T04:53:21.746Z,4.80
2022-11-21T04:54:54.834Z,4.80
2022-11-21T04:56:28.001Z,4.80
2022-11-21T04:58:00.686Z,4.80
2022-11-21T04:59:35.905Z,4.80
2022-11-21T05:01:10.344Z,4.80
2022-11-21T05:02:48.206Z,4.80
2022-11-21T05:04:21.509Z,4.80
2022-11-21T05:05:54.660Z,4.80
2022-11-21T05:07:28.023Z,4.80
2022-11-21T05:09:01.441Z,4.80
2022-11-21T05:10:55.144Z,4.80
2022-11-21T05:12:45.230Z,4.80
2022-11-21T05:14:17.520Z,4.80
2022-11-21T05:15:58.014Z,4.80
2022-11-21T05:17:31.517Z,4.80
2022-11-21T05:19:07.511Z,4.80
2022-11-21T05:20:41.661Z,4.80
2022-11-21T05:22:15.305Z,4.80
2022-11-21T05:23:48.421Z,4.80
2022-11-21T05:25:20.636Z,4.80
2022-11-21T05:26:55.804Z,4.80
2022-11-21T05:28:29.157Z,4.80
2022-11-21T05:30:02.541Z,4.80
2022-11-21T05:31:35.904Z,4.80
2022-11-21T05:33:08.175Z,4.80
2022-11-21T05:34:44.571Z,4.80
2022-11-21T05:36:17.725Z,4.80
2022-11-21T05:37:57.568Z,4.80
2022-11-21T05:39:30.758Z,4.80
2022-11-21T05:41:04.140Z,4.80
2022-11-21T05:42:57.778Z,4.80
2022-11-21T05:44:31.488Z,4.80
2022-11-21T05:46:03.786Z,4.80
2022-11-21T05:47:37.097Z,4.80
2022-11-21T05:49:10.533Z,4.80
2022-11-21T05:50:49.982Z,4.80
2022-11-21T05:52:23.354Z,4.80
2022-11-21T05:53:56.876Z,4.80
2022-11-21T05:55:29.057Z,4.80
2022-11-21T05:57:02.232Z,4.80
2022-11-21T05:58:40.028Z,4.80
2022-11-21T06:00:16.047Z,4.80
2022-11-21T06:02:06.895Z,4.80
2022-11-21T06:03:42.271Z,4.80
2022-11-21T06:05:14.594Z,4.80
2022-11-21T06:06:49.430Z,4.80
2022-11-21T06:08:22.550Z,4.80
2022-11-21T06:09:55.902Z,4.80
2022-11-21T06:11:29.379Z,4.80
2022-11-21T06:13:03.387Z,4.80
2022-11-21T06:14:36.695Z,4.80
2022-11-21T06:16:13.069Z,4.80
2022-11-21T06:17:45.372Z,4.80
2022-11-21T06:19:18.618Z,4.80
2022-11-21T06:20:52.347Z,4.80
2022-11-21T06:22:26.867Z,4.80
2022-11-21T06:24:00.167Z,4.80
2022-11-21T06:25:33.430Z,4.80
2022-11-21T06:27:06.693Z,4.80
2022-11-21T06:28:41.845Z,4.80
2022-11-21T06:30:21.879Z,4.80
2022-11-21T06:31:56.485Z,4.80
2022-11-21T06:33:29.621Z,4.80
2022-11-21T06:35:02.764Z,4.80
2022-11-21T06:36:36.331Z,4.80
2022-11-21T06:38:13.406Z,4.80
2022-11-21T06:39:46.478Z,4.80
2022-11-21T06:41:21.789Z,4.80
2022-11-21T06:42:54.912Z,4.80
2022-11-21T06:44:28.234Z,4.80
2022-11-21T06:46:03.216Z,4.80
2022-11-21T06:47:37.244Z,4.80
2022-11-21T06:49:10.509Z,4.80
2022-11-21T06:50:43.979Z,4.80
2022-11-21T06:52:17.432Z,4.80
2022-11-21T06:53:56.469Z,4.80
2022-11-21T06:55:29.973Z,4.80
2022-11-21T06:57:02.349Z,4.80
2022-11-21T06:58:35.550Z,4.80
2022-11-21T07:00:10.456Z,4.90
2022-11-21T07:01:43.855Z,4.80
2022-11-21T07:03:17.136Z,4.80
2022-11-21T07:04:50.293Z,4.80
2022-11-21T07:06:24.354Z,4.80
2022-11-21T07:08:00.217Z,4.80
2022-11-21T07:09:35.952Z,4.80
2022-11-21T07:11:27.747Z,4.90
2022-11-21T07:13:19.124Z,4.90
2022-11-21T07:14:52.265Z,4.90
2022-11-21T07:16:26.012Z,4.90
2022-11-21T07:18:00.338Z,4.90
2022-11-21T07:19:37.309Z,4.90
2022-11-21T07:21:14.505Z,4.90
2022-11-21T07:22:47.696Z,4.90
2022-11-21T07:24:21.032Z,4.90
2022-11-21T07:25:56.185Z,4.90
2022-11-21T07:27:29.481Z,4.90
2022-11-21T07:29:03.139Z,4.90
2022-11-21T07:30:37.529Z,4.90
2022-11-21T07:32:10.727Z,4.90
2022-11-21T07:33:44.420Z,4.90
2022-11-21T07:35:18.036Z,4.90
2022-11-21T07:36:51.188Z,4.90
2022-11-21T07:38:24.519Z,4.90
2022-11-21T07:39:58.026Z,4.90
2022-11-21T07:41:32.773Z,4.90
2022-11-21T07:43:10.953Z,4.90
2022-11-21T07:44:44.615Z,4.90
2022-11-21T07:46:17.819Z,4.80
2022-11-21T07:47:59.372Z,4.80
2022-11-21T07:49:33.916Z,4.80
2022-11-21T07:51:07.540Z,4.80
2022-11-21T07:52:40.971Z,4.90
2022-11-21T07:54:14.155Z,4.90
2022-11-21T07:55:47.339Z,4.90
2022-11-21T07:57:21.976Z,4.80
2022-11-21T07:58:55.189Z,4.80
2022-11-21T08:00:31.007Z,4.80
2022-11-21T08:02:05.191Z,4.80
2022-11-21T08:03:38.557Z,4.80
2022-11-21T08:05:16.143Z,4.80
2022-11-21T08:06:49.331Z,4.80
2022-11-21T08:08:22.880Z,4.80
2022-11-21T08:10:00.587Z,4.80
2022-11-21T08:11:34.329Z,4.80
2022-11-21T08:13:09.012Z,4.80
2022-11-21T08:14:43.986Z,4.80
2022-11-21T08:16:19.995Z,4.80
2022-11-21T08:17:53.206Z,4.80
2022-11-21T08:19:26.707Z,4.80
2022-11-21T08:21:03.289Z,4.90
2022-11-21T08:22:40.608Z,4.90
2022-11-21T08:24:14.866Z,4.90
2022-11-21T08:25:48.212Z,4.90
2022-11-21T08:27:21.962Z,4.90
2022-11-21T08:28:59.883Z,4.90
2022-11-21T08:30:34.740Z,4.90
2022-11-21T08:32:08.021Z,4.90
2022-11-21T08:33:41.161Z,4.90
2022-11-21T08:35:14.438Z,4.90
2022-11-21T08:36:47.601Z,4.90
2022-11-21T08:38:20.705Z,4.90
2022-11-21T08:39:54.133Z,4.90
2022-11-21T08:41:45.581Z,4.90
2022-11-21T08:43:18.899Z,4.90
2022-11-21T08:44:53.766Z,4.90
2022-11-21T08:46:28.323Z,4.90
2022-11-21T08:48:02.610Z,4.90
2022-11-21T08:49:36.175Z,4.90
2022-11-21T08:51:09.298Z,4.90
2022-11-21T08:52:43.207Z,4.90
2022-11-21T08:54:16.819Z,4.90
2022-11-21T08:55:50.266Z,4.90
2022-11-21T08:57:23.682Z,4.90
2022-11-21T08:58:56.988Z,4.90
2022-11-21T09:00:31.887Z,5.00
2022-11-21T09:02:07.106Z,5.00
2022-11-21T09:03:40.389Z,5.00
2022-11-21T09:05:13.682Z,5.00
2022-11-21T09:06:48.088Z,5.00
2022-11-21T09:08:21.550Z,5.00
2022-11-21T09:09:54.713Z,5.00
2022-11-21T09:11:28.336Z,5.10
2022-11-21T09:13:02.352Z,5.00
2022-11-21T09:14:52.936Z,5.00
2022-11-21T09:16:45.204Z,5.00
2022-11-21T09:18:18.430Z,5.10
2022-11-21T09:19:51.629Z,5.00
2022-11-21T09:21:24.790Z,5.10
2022-11-21T09:22:58.103Z,5.10
2022-11-21T09:24:33.248Z,5.10
2022-11-21T09:26:06.587Z,5.10
2022-11-21T09:27:39.817Z,5.20
2022-11-21T09:29:15.181Z,5.20
2022-11-21T09:30:48.677Z,5.20
2022-11-21T09:32:23.672Z,5.20
2022-11-21T09:33:56.903Z,5.20
2022-11-21T09:35:30.972Z,5.20
2022-11-21T09:37:04.342Z,5.30
2022-11-21T09:38:37.505Z,5.30
2022-11-21T09:40:15.988Z,5.30
2022-11-21T09:42:11.117Z,5.40
2022-11-21T09:43:59.921Z,5.40
2022-11-21T09:45:37.688Z,5.40
2022-11-21T09:47:26.055Z,5.40
2022-11-21T09:49:06.126Z,5.50
2022-11-21T09:50:49.328Z,5.50
2022-11-21T09:52:39.051Z,5.50
2022-11-21T09:54:20.763Z,5.50
2022-11-21T09:55:59.967Z,5.50
2022-11-21T09:57:36.540Z,5.60
2022-11-21T09:59:28.085Z,5.60
2022-11-21T10:01:01.812Z,5.60
2022-11-21T10:02:36.837Z,5.60
2022-11-21T10:04:09.950Z,5.60
2022-11-21T10:05:49.511Z,5.70
2022-11-21T10:07:28.147Z,5.70
2022-11-21T10:09:12.853Z,5.60
2022-11-21T10:10:58.529Z,5.70
2022-11-21T10:12:44.276Z,5.70
2022-11-21T10:14:32.118Z,5.70
2022-11-21T10:16:19.305Z,5.80
2022-11-21T10:18:20.884Z,5.80
2022-11-21T10:20:23.711Z,5.80
2022-11-21T10:22:23.701Z,5.90
2022-11-21T10:24:23.531Z,5.90
2022-11-21T10:25:59.803Z,5.90
2022-11-21T10:27:39.939Z,6.00
2022-11-21T10:29:21.513Z,6.00
2022-11-21T10:30:56.889Z,6.00
2022-11-21T10:32:38.798Z,6.10
2022-11-21T10:34:20.093Z,6.10
2022-11-21T10:36:00.333Z,6.10
2022-11-21T10:37:39.501Z,6.10
2022-11-21T10:39:21.537Z,6.20
2022-11-21T10:41:03.948Z,6.20
2022-11-21T10:42:43.012Z,6.20
2022-11-21T10:44:45.475Z,6.20
2022-11-21T10:46:18.822Z,6.20
2022-11-21T10:47:54.095Z,6.30
2022-11-21T10:49:34.475Z,6.30
2022-11-21T10:51:36.147Z,6.30
2022-11-21T10:53:36.336Z,6.30
2022-11-21T10:55:13.145Z,6.30
2022-11-21T10:56:46.553Z,6.30
2022-11-21T10:58:20.430Z,6.40
2022-11-21T11:00:01.221Z,6.40
2022-11-21T11:01:36.761Z,6.40
2022-11-21T11:03:18.585Z,6.40
2022-11-21T11:05:24.793Z,6.40
2022-11-21T11:07:00.452Z,6.40
2022-11-21T11:08:52.648Z,6.50
2022-11-21T11:10:27.928Z,6.50
2022-11-21T11:12:50.754Z,6.50
2022-11-21T11:14:33.184Z,6.50
2022-11-21T11:16:16.307Z,6.50
2022-11-21T11:17:57.913Z,6.60
2022-11-21T11:19:38.521Z,6.60
2022-11-21T11:21:21.553Z,6.60
2022-11-21T11:22:54.730Z,6.60
2022-11-21T11:24:28.570Z,6.70
2022-11-21T11:26:01.954Z,6.70
2022-11-21T11:27:38.364Z,6.70
2022-11-21T11:29:16.901Z,6.70
2022-11-21T11:30:52.345Z,6.80
2022-11-21T11:32:25.641Z,6.80
2022-11-21T11:33:59.077Z,6.80
2022-11-21T11:35:36.615Z,6.80
2022-11-21T11:37:22.070Z,6.80
2022-11-21T11:38:59.708Z,6.80
2022-11-21T11:40:38.731Z,6.90
2022-11-21T11:43:12.613Z,6.90
2022-11-21T11:45:23.614Z,6.90
2022-11-21T11:47:27.074Z,6.90
2022-11-21T11:49:20.216Z,6.90
2022-11-21T11:51:01.404Z,7.00
2022-11-21T11:52:51.349Z,6.90
2022-11-21T11:54:33.571Z,7.00
2022-11-21T11:56:14.087Z,7.00
2022-11-21T11:57:51.219Z,7.00
2022-11-21T11:59:32.198Z,7.00
2022-11-21T12:01:12.354Z,7.00
2022-11-21T12:03:00.860Z,7.00
2022-11-21T12:04:45.602Z,7.00
2022-11-21T12:06:52.549Z,7.00
2022-11-21T12:08:43.344Z,7.00
2022-11-21T12:10:25.524Z,7.10
2022-11-21T12:12:08.832Z,7.10
2022-11-21T12:13:44.364Z,7.10
2022-11-21T12:15:40.959Z,7.10
2022-11-21T12:17:17.393Z,7.10
2022-11-21T12:19:00.987Z,7.10
2022-11-21T12:20:43.301Z,7.10
2022-11-21T12:22:16.761Z,7.10
2022-11-21T12:23:54.300Z,7.10
2022-11-21T12:25:34.720Z,7.10
2022-11-21T12:27:25.304Z,7.20
2022-11-21T12:29:17.076Z,7.20
2022-11-21T12:31:05.707Z,7.20
2022-11-21T12:33:02.270Z,7.20
2022-11-21T12:35:08.773Z,7.20
2022-11-21T12:36:54.797Z,7.20
2022-11-21T12:38:53.134Z,7.20
2022-11-21T12:40:49.140Z,7.20
2022-11-21T12:42:50.666Z,7.20
2022-11-21T12:44:55.245Z,7.20
2022-11-21T12:46:42.403Z,7.20
2022-11-21T12:48:38.541Z,7.30
2022-11-21T12:50:42.699Z,7.20
2022-11-21T12:52:40.957Z,7.30
2022-11-21T12:54:45.400Z,7.30
2022-11-21T12:56:33.451Z,7.30
2022-11-21T12:58:28.503Z,7.30
2022-11-21T13:00:13.152Z,7.30
2022-11-21T13:02:01.190Z,7.30
2022-11-21T13:03:46.515Z,7.30
2022-11-21T13:05:28.517Z,7.30
2022-11-21T13:07:05.431Z,7.30
2022-11-21T13:08:39.866Z,7.30
2022-11-21T13:10:17.122Z,7.40
2022-11-21T13:12:03.340Z,7.30
2022-11-21T13:13:38.981Z,7.40
2022-11-21T13:15:24.207Z,7.40
2022-11-21T13:17:13.845Z,7.40
2022-11-21T13:18:50.779Z,7.40
2022-11-21T13:20:32.417Z,7.40
2022-11-21T13:22:05.748Z,7.40
2022-11-21T13:23:40.802Z,7.40
2022-11-21T13:25:20.113Z,7.40
2022-11-21T13:26:56.994Z,7.50
2022-11-21T13:28:39.543Z,7.50
2022-11-21T13:30:23.745Z,7.40
2022-11-21T13:31:57.083Z,7.40
2022-11-21T13:33:52.147Z,7.50
2022-11-21T13:36:08.995Z,7.40
2022-11-21T13:38:02.853Z,7.50
2022-11-21T13:39:40.168Z,7.50
2022-11-21T13:41:50.728Z,7.50
2022-11-21T13:43:35.250Z,7.50
2022-11-21T13:45:40.296Z,7.50
2022-11-21T13:47:56.681Z,7.50
2022-11-21T13:49:41.217Z,7.50
2022-11-21T13:51:49.982Z,7.50
2022-11-21T13:54:04.806Z,7.50
2022-11-21T13:55:56.340Z,7.50
2022-11-21T13:57:49.797Z,7.50
2022-11-21T13:59:47.060Z,7.50
2022-11-21T14:01:53.607Z,7.50
2022-11-21T14:04:13.912Z,7.50
2022-11-21T14:06:16.222Z,7.50
2022-11-21T14:07:53.264Z,7.50
2022-11-21T14:09:38.485Z,7.50
2022-11-21T14:11:30.364Z,7.50
2022-11-21T14:13:05.777Z,7.50
2022-11-21T14:14:49.746Z,7.50
2022-11-21T14:16:36.785Z,7.50
2022-11-21T14:18:22.728Z,7.50
2022-11-21T14:19:59.235Z,7.50
2022-11-21T14:21:35.100Z,7.50
2022-11-21T14:23:19.641Z,7.50
2022-11-21T14:24:54.432Z,7.50
2022-11-21T14:26:30.454Z,7.40
2022-11-21T14:28:09.713Z,7.50
2022-11-21T14:29:44.108Z,7.50
2022-11-21T14:31:17.333Z,7.50
2022-11-21T14:32:54.431Z,7.50
2022-11-21T14:34:29.853Z,7.40
2022-11-21T14:36:07.689Z,7.40
2022-11-21T14:37:43.044Z,7.40
2022-11-21T14:39:36.830Z,7.40
2022-11-21T14:41:27.856Z,7.40
2022-11-21T14:43:01.121Z,7.40
2022-11-21T14:44:34.748Z,7.40
2022-11-21T14:46:16.979Z,7.40
2022-11-21T14:47:51.637Z,7.40
2022-11-21T14:49:29.246Z,7.30
2022-11-21T14:51:02.751Z,7.40
2022-11-21T14:52:36.541Z,7.30
2022-11-21T14:54:17.072Z,7.30
2022-11-21T14:55:56.921Z,7.30
2022-11-21T14:57:43.414Z,7.30
2022-11-21T14:59:24.845Z,7.20
2022-11-21T15:01:08.377Z,7.20
2022-11-21T15:02:44.261Z,7.20
2022-11-21T15:04:17.511Z,7.20
2022-11-21T15:06:08.543Z,7.20
2022-11-21T15:07:44.969Z,7.20
2022-11-21T15:11:12.614Z,7.10
2022-11-21T15:12:56.153Z,7.10
2022-11-21T15:14:37.853Z,7.00
2022-11-21T15:16:11.225Z,7.00
2022-11-21T15:18:18.061Z,7.00
2022-11-21T15:19:40.645Z,7.00
2022-11-21T15:21:17.016Z,7.00
2022-11-21T15:22:51.392Z,6.90
2022-11-21T15:24:41.607Z,6.90
2022-11-21T15:26:30.854Z,6.80
2022-11-21T15:28:17.043Z,6.80
2022-11-21T15:30:01.142Z,6.80
2022-11-21T15:31:34.348Z,6.70
2022-11-21T15:33:14.353Z,6.70
2022-11-21T15:34:47.473Z,6.70
2022-11-21T15:36:20.633Z,6.70
2022-11-21T15:37:53.911Z,6.60
2022-11-21T15:39:27.140Z,6.60
2022-11-21T15:41:26.544Z,6.50
2022-11-21T15:43:01.674Z,6.50
2022-11-21T15:44:34.829Z,6.50
2022-11-21T15:46:17.337Z,6.40
2022-11-21T15:47:50.691Z,6.40
2022-11-21T15:49:33.010Z,6.40
2022-11-21T15:51:06.746Z,6.30
2022-11-21T15:52:45.909Z,6.30
2022-11-21T15:54:21.152Z,6.20
2022-11-21T15:55:54.229Z,6.20
2022-11-21T15:57:27.760Z,6.20
2022-11-21T15:59:00.972Z,6.10
2022-11-21T16:00:34.305Z,6.10
2022-11-21T16:02:10.930Z,6.10
2022-11-21T16:03:45.393Z,6.10
2022-11-21T16:05:20.354Z,6.00
2022-11-21T16:06:53.719Z,6.00
2022-11-21T16:08:26.990Z,6.00
2022-11-21T16:10:00.354Z,6.00
2022-11-21T16:11:37.220Z,5.90
2022-11-21T16:13:12.309Z,5.90
2022-11-21T16:14:46.950Z,5.90
2022-11-21T16:16:21.764Z,5.90
2022-11-21T16:17:55.100Z,5.90
2022-11-21T16:19:28.736Z,5.80
2022-11-21T16:21:09.070Z,5.80
2022-11-21T16:22:47.135Z,5.80
2022-11-21T16:24:20.997Z,5.70
2022-11-21T16:25:55.161Z,5.80
2022-11-21T16:27:28.299Z,5.70
2022-11-21T16:29:05.094Z,5.70
2022-11-21T16:30:40.191Z,5.70
2022-11-21T16:32:13.402Z,5.70
2022-11-21T16:33:46.996Z,5.70
2022-11-21T16:35:20.279Z,5.60
2022-11-21T16:36:55.892Z,5.60
2022-11-21T16:38:30.969Z,5.60
2022-11-21T16:40:05.034Z,5.60
2022-11-21T16:41:39.210Z,5.60
2022-11-21T16:43:14.287Z,5.50
2022-11-21T16:44:48.145Z,5.50
2022-11-21T16:46:24.163Z,5.60
2022-11-21T16:47:57.329Z,5.50
2022-11-21T16:49:31.097Z,5.50
2022-11-21T16:51:13.080Z,5.40
2022-11-21T16:52:47.828Z,5.40
2022-11-21T16:54:21.614Z,5.40
2022-11-21T16:56:01.505Z,5.40
2022-11-21T16:57:36.452Z,5.40
2022-11-21T16:59:09.893Z,5.30
2022-11-21T17:00:43.320Z,5.30
2022-11-21T17:02:16.751Z,5.30
2022-11-21T17:03:51.139Z,5.30
2022-11-21T17:05:24.405Z,5.30
2022-11-21T17:06:57.626Z,5.20
2022-11-21T17:08:32.295Z,5.20
2022-11-21T17:10:06.610Z,5.20
2022-11-21T17:11:40.072Z,5.20
2022-11-21T17:13:13.317Z,5.20
2022-11-21T17:14:48.826Z,5.20
2022-11-21T17:16:24.241Z,5.10
2022-11-21T17:18:01.319Z,5.10
2022-11-21T17:19:34.404Z,5.10
2022-11-21T17:21:10.015Z,5.10
2022-11-21T17:22:43.192Z,5.10
2022-11-21T17:24:18.601Z,5.10
2022-11-21T17:25:51.850Z,5.10
2022-11-21T17:27:25.490Z,5.10
2022-11-21T17:29:01.144Z,5.00
2022-11-21T17:30:35.273Z,5.00
2022-11-21T17:32:08.417Z,5.00
2022-11-21T17:33:42.382Z,5.00
2022-11-21T17:35:15.863Z,5.00
2022-11-21T17:36:49.130Z,5.00
2022-11-21T17:38:22.496Z,5.00
2022-11-21T17:39:56.979Z,5.00
2022-11-21T17:41:30.307Z,4.90
2022-11-21T17:43:03.406Z,5.00
2022-11-21T17:44:36.689Z,5.00
2022-11-21T17:46:14.430Z,5.00
2022-11-21T17:47:47.623Z,4.90
2022-11-21T17:49:21.488Z,4.90
2022-11-21T17:51:03.918Z,4.90
2022-11-21T17:52:37.194Z,4.90
2022-11-21T17:54:11.071Z,4.90
2022-11-21T17:55:46.930Z,4.90
2022-11-21T17:57:20.134Z,4.90
2022-11-21T17:58:53.911Z,4.90
2022-11-21T18:00:27.335Z,4.90
2022-11-21T18:02:02.025Z,4.90
2022-11-21T18:03:37.099Z,4.90
2022-11-21T18:05:10.395Z,4.90
2022-11-21T18:06:43.617Z,4.90
2022-11-21T18:08:17.097Z,4.90
2022-11-21T18:09:50.454Z,4.90
2022-11-21T18:11:28.073Z,4.90
2022-11-21T18:13:02.288Z,4.90
2022-11-21T18:14:35.481Z,4.90
2022-11-21T18:16:12.380Z,4.90
2022-11-21T18:17:46.958Z,4.90
2022-11-21T18:19:20.885Z,4.90
2022-11-21T18:20:54.004Z,4.90
2022-11-21T18:22:29.637Z,4.90
2022-11-21T18:24:03.357Z,4.90
2022-11-21T18:25:37.191Z,4.90
2022-11-21T18:27:11.682Z,4.80
2022-11-21T18:28:45.271Z,4.80
2022-11-21T18:30:18.676Z,4.80
2022-11-21T18:31:53.226Z,4.80
2022-11-21T18:33:27.150Z,4.80
2022-11-21T18:35:00.375Z,4.80
2022-11-21T18:36:33.895Z,4.80
2022-11-21T18:38:07.079Z,4.80
2022-11-21T18:39:40.215Z,4.90
2022-11-21T18:41:15.618Z,4.80
2022-11-21T18:42:50.046Z,4.80
2022-11-21T18:44:23.172Z,4.80
2022-11-21T18:46:02.985Z,4.80
2022-11-21T18:47:36.468Z,4.80
2022-11-21T18:49:09.736Z,4.80
2022-11-21T18:50:43.056Z,4.80
2022-11-21T18:52:16.294Z,4.80
2022-11-21T18:53:53.068Z,4.80
2022-11-21T18:55:27.812Z,4.80
2022-11-21T18:57:01.186Z,4.80
2022-11-21T18:58:36.869Z,4.80
2022-11-21T19:00:12.484Z,4.80
2022-11-21T19:01:46.333Z,4.80
2022-11-21T19:03:20.603Z,4.80
2022-11-21T19:04:54.117Z,4.80
2022-11-21T19:06:28.632Z,4.80
2022-11-21T19:08:02.224Z,4.80
2022-11-21T19:09:35.876Z,4.80
2022-11-21T19:11:13.039Z,4.80
2022-11-21T19:12:46.332Z,4.80
2022-11-21T19:14:21.025Z,4.90
2022-11-21T19:15:54.317Z,4.80
2022-11-21T19:17:27.438Z,4.80
2022-11-21T19:20:54.994Z,4.80
2022-11-21T19:22:29.000Z,4.80
2022-11-21T19:24:02.316Z,4.80
2022-11-21T19:25:36.329Z,4.80
2022-11-21T19:27:09.526Z,4.80
2022-11-21T19:28:43.480Z,4.80
2022-11-21T19:30:18.320Z,4.80
2022-11-21T19:31:51.665Z,4.90
2022-11-21T19:33:25.713Z,4.80
2022-11-21T19:34:58.773Z,4.80
2022-11-21T19:36:32.284Z,4.90
2022-11-21T19:38:06.539Z,4.90
2022-11-21T19:39:40.965Z,4.90
2022-11-21T19:41:16.599Z,4.90
2022-11-21T19:42:49.884Z,4.90
2022-11-21T19:44:23.220Z,4.90
2022-11-21T19:46:03.130Z,4.90
2022-11-21T19:47:37.238Z,4.90
2022-11-21T19:49:12.533Z,4.90
2022-11-21T19:50:58.262Z,5.00
2022-11-21T19:52:31.991Z,4.90
2022-11-21T19:54:06.483Z,5.00
2022-11-21T19:55:39.873Z,5.00
2022-11-21T19:57:14.138Z,5.00
2022-11-21T19:58:51.271Z,5.00
2022-11-21T20:00:25.392Z,5.00
2022-11-21T20:02:01.110Z,5.00
2022-11-21T20:03:34.925Z,5.00
2022-11-21T20:05:09.098Z,5.00
2022-11-21T20:06:46.095Z,5.00
2022-11-21T20:08:19.445Z,5.00
2022-11-21T20:09:52.683Z,5.00
2022-11-21T20:11:28.848Z,5.00
2022-11-21T20:13:03.321Z,5.10
2022-11-21T20:14:36.458Z,5.10
2022-11-21T20:16:19.325Z,5.10
2022-11-21T20:17:54.231Z,5.10
2022-11-21T20:19:27.955Z,5.10
2022-11-21T20:21:09.489Z,5.10
2022-11-21T20:22:42.714Z,5.20
2022-11-21T20:24:17.812Z,5.10
2022-11-21T20:25:52.162Z,5.10
2022-11-21T20:27:26.046Z,5.10
2022-11-21T20:28:59.320Z,5.10
2022-11-21T20:30:32.457Z,5.10
2022-11-21T20:32:06.181Z,5.10
2022-11-21T20:33:43.038Z,5.20
2022-11-21T20:35:16.548Z,5.20
2022-11-21T20:36:50.818Z,5.20
2022-11-21T20:38:24.605Z,5.20
2022-11-21T20:39:58.035Z,5.20
2022-11-21T20:41:34.105Z,5.20
2022-11-21T20:43:07.273Z,5.20
2022-11-21T20:46:35.202Z,5.20
2022-11-21T20:48:11.135Z,5.20
2022-11-21T20:49:47.251Z,5.20
2022-11-21T20:52:43.333Z,5.30
2022-11-21T20:53:50.763Z,5.20
2022-11-21T20:55:07.723Z,5.20
2022-11-21T20:56:44.146Z,5.30
2022-11-21T20:58:17.898Z,5.20
2022-11-21T20:59:51.023Z,5.30
2022-11-21T21:01:24.287Z,5.30
2022-11-21T21:02:57.748Z,5.30
2022-11-21T21:04:30.906Z,5.30
2022-11-21T21:06:08.451Z,5.30
2022-11-21T21:07:41.822Z,5.30
2022-11-21T21:09:15.236Z,5.30
2022-11-21T21:11:04.995Z,5.30
2022-11-21T21:12:42.158Z,5.30
2022-11-21T21:14:19.274Z,5.30
2022-11-21T21:15:52.611Z,5.30
2022-11-21T21:17:26.920Z,5.30
2022-11-21T21:19:00.082Z,5.30
2022-11-21T21:20:49.255Z,5.30
2022-11-21T21:22:29.082Z,5.30
2022-11-21T21:24:05.035Z,5.30
2022-11-21T21:25:38.292Z,5.40
2022-11-21T21:27:11.416Z,5.40
2022-11-21T21:28:45.865Z,5.40
2022-11-21T21:30:20.276Z,5.40
2022-11-21T21:31:53.620Z,5.40
2022-11-21T21:33:26.914Z,5.40
2022-11-21T21:35:00.251Z,5.40
2022-11-21T21:36:33.496Z,5.40
2022-11-21T21:38:09.217Z,5.50
2022-11-21T21:39:42.483Z,5.50
2022-11-21T21:41:16.179Z,5.50
2022-11-21T21:42:49.301Z,5.50
2022-11-21T21:44:27.028Z,5.50